Time;durP1;ratioP1;P1;durP2;ratioP2;P2;SDS_P1;SDS_P2;PMS_P1;PMS_P2;Temp;Humidity;BMP_temperature;BMP_pressure;BME280_temperature;BME280_humidity;BME280_pressure;Samples;Min_cycle;Max_cycle;Signal;HPM_P1;HPM_P2
2024/03/11 00:00:17;;;;;;;13.83;2.43;;;25.90;67.70;;;;;;5041984;28;20200;-72
2024/03/11 00:02:49;;;;;;;9.50;2.77;;;25.70;67.40;;;;;;5044154;28;20711;-73
2024/03/11 00:05:17;;;;;;;12.00;2.63;;;26.00;67.90;;;;;;5045310;28;20275;-74
2024/03/11 00:07:46;;;;;;;13.63;2.43;;;26.40;67.40;;;;;;5047871;28;20188;-73
2024/03/11 00:10:13;;;;;;;8.13;2.00;;;26.90;66.00;;;;;;5043999;28;20184;-73
2024/03/11 00:12:53;;;;;;;6.73;2.60;;;27.40;64.30;;;;;;5045682;28;20186;-73
2024/03/11 00:15:22;;;;;;;9.70;2.07;;;27.60;62.10;;;;;;5042575;28;20182;-73
2024/03/11 00:17:49;;;;;;;9.17;2.23;;;27.60;61.90;;;;;;5043088;28;20263;-73
2024/03/11 00:20:18;;;;;;;11.90;2.27;;;27.70;61.80;;;;;;5046581;28;20216;-74
2024/03/11 00:22:46;;;;;;;9.60;2.40;;;27.90;61.00;;;;;;5049450;28;20237;-75
2024/03/11 00:25:14;;;;;;;11.63;2.23;;;27.90;60.40;;;;;;5042678;28;20187;-75
2024/03/11 00:27:41;;;;;;;8.90;2.00;;;28.10;60.60;;;;;;5042602;28;20191;-74
2024/03/11 00:30:10;;;;;;;13.70;2.17;;;28.20;59.30;;;;;;5045538;28;20739;-74
2024/03/11 00:32:46;;;;;;;11.00;2.10;;;28.10;59.30;;;;;;5046481;28;20213;-76
2024/03/11 00:35:14;;;;;;;9.37;2.47;;;28.30;59.20;;;;;;5044936;28;20194;-79
2024/03/11 00:37:45;;;;;;;8.57;2.10;;;28.10;59.40;;;;;;5046899;28;20207;-76
2024/03/11 00:40:13;;;;;;;10.17;1.70;;;28.20;59.10;;;;;;5021177;28;20231;-74
2024/03/11 00:42:40;;;;;;;8.60;2.10;;;28.30;58.80;;;;;;5044698;28;20190;-74
2024/03/11 00:45:12;;;;;;;7.97;2.03;;;28.10;58.80;;;;;;5046794;28;20210;-74
2024/03/11 00:47:40;;;;;;;10.13;1.87;;;28.10;58.70;;;;;;5030151;28;20191;-74
2024/03/11 00:50:12;;;;;;;7.13;1.63;;;28.30;57.90;;;;;;5045229;28;20180;-76
2024/03/11 00:52:42;;;;;;;9.17;2.17;;;28.50;58.20;;;;;;5046966;28;20246;-77
2024/03/11 00:55:10;;;;;;;8.20;1.77;;;28.50;57.20;;;;;;5046267;28;20509;-75
2024/03/11 00:57:45;;;;;;;7.97;1.73;;;28.40;57.80;;;;;;5047430;28;20521;-75
2024/03/11 01:00:12;;;;;;;9.17;1.70;;;28.60;57.40;;;;;;5044007;28;20223;-75
2024/03/11 01:02:51;;;;;;;8.43;1.97;;;28.30;57.80;;;;;;5043722;28;20235;-76
2024/03/11 01:05:22;;;;;;;7.67;2.20;;;28.40;57.70;;;;;;5040467;28;20247;-78
2024/03/11 01:07:49;;;;;;;6.33;1.90;;;28.70;56.10;;;;;;5044896;28;20184;-77
2024/03/11 01:10:17;;;;;;;5.33;1.77;;;28.50;56.30;;;;;;5046846;28;20635;-74
2024/03/11 01:12:45;;;;;;;8.97;2.10;;;28.60;56.20;;;;;;5042004;28;20180;-76
2024/03/11 01:15:12;;;;;;;9.27;1.80;;;28.80;56.40;;;;;;5041638;28;20199;-78
2024/03/11 01:17:40;;;;;;;7.63;1.63;;;28.80;55.80;;;;;;5041833;28;20180;-77
2024/03/11 01:20:15;;;;;;;12.27;1.87;;;28.80;55.50;;;;;;5027538;28;20254;-76
2024/03/11 01:22:42;;;;;;;10.17;2.13;;;28.80;55.10;;;;;;5046738;28;20630;-77
2024/03/11 01:25:12;;;;;;;6.73;1.50;;;28.50;55.70;;;;;;5047531;28;20188;-74
2024/03/11 01:27:43;;;;;;;8.17;2.10;;;28.70;54.80;;;;;;5046307;28;20286;-75
2024/03/11 01:30:14;;;;;;;8.60;1.90;;;28.90;55.20;;;;;;5044074;28;20226;-75
2024/03/11 01:32:44;;;;;;;9.23;1.80;;;28.80;55.10;;;;;;5036919;28;20184;-78
2024/03/11 01:35:15;;;;;;;8.27;2.47;;;28.80;54.90;;;;;;5049443;28;20180;-75
2024/03/11 01:37:42;;;;;;;13.77;2.73;;;28.80;54.90;;;;;;5052463;28;20179;-73
2024/03/11 01:40:16;;;;;;;10.30;2.27;;;28.60;55.90;;;;;;5045087;28;20207;-76
2024/03/11 01:42:44;;;;;;;12.93;2.40;;;28.90;56.30;;;;;;5044107;28;20211;-73
2024/03/11 01:45:32;;;;;;;4.20;1.57;;;29.00;55.10;;;;;;5045152;28;20184;-74
2024/03/11 01:47:59;;;;;;;6.30;1.60;;;28.60;55.70;;;;;;5047207;28;20184;-77
2024/03/11 01:50:28;;;;;;;7.63;1.90;;;28.80;55.20;;;;;;5050041;28;20202;-76
2024/03/11 01:53:04;;;;;;;12.97;1.80;;;28.80;55.00;;;;;;5025817;28;20192;-74
2024/03/11 01:55:32;;;;;;;9.60;1.97;;;28.80;55.10;;;;;;5047610;28;20184;-74
2024/03/11 01:58:03;;;;;;;9.83;2.03;;;29.00;54.90;;;;;;5044798;28;20265;-73
2024/03/11 02:00:30;;;;;;;9.53;2.00;;;29.40;54.60;;;;;;5048358;28;20700;-73
2024/03/11 02:02:58;;;;;;;6.63;1.90;;;29.60;53.30;;;;;;5030860;28;20180;-74
2024/03/11 02:05:26;;;;;;;8.27;2.27;;;29.50;53.00;;;;;;5046360;28;20179;-74
2024/03/11 02:08:00;;;;;;;7.53;2.00;;;29.80;52.90;;;;;;5044545;28;20271;-74
2024/03/11 02:10:29;;;;;;;9.67;2.20;;;30.00;52.00;;;;;;5046943;28;20183;-73
2024/03/11 02:12:58;;;;;;;6.67;1.60;;;30.20;51.40;;;;;;5039608;28;20181;-74
2024/03/11 02:15:26;;;;;;;9.53;2.37;;;30.30;50.60;;;;;;5046891;28;20184;-74
2024/03/11 02:17:54;;;;;;;10.07;2.07;;;30.00;51.40;;;;;;5044740;28;20553;-77
2024/03/11 02:20:22;;;;;;;9.40;2.00;;;29.90;51.70;;;;;;5045628;28;20311;-75
2024/03/11 02:22:54;;;;;;;9.02;2.05;;;30.30;51.10;;;;;;5044622;28;20256;-76
2024/03/11 02:25:30;;;;;;;10.33;2.67;;;30.20;51.00;;;;;;5047586;28;20206;-73
2024/03/11 02:27:59;;;;;;;6.30;2.07;;;29.90;51.30;;;;;;5045716;28;20275;-74
2024/03/11 02:30:27;;;;;;;7.13;2.15;;;30.30;50.70;;;;;;5049563;28;20211;-73
2024/03/11 02:32:58;;;;;;;8.60;1.80;;;30.00;49.60;;;;;;5047365;28;20247;-73
2024/03/11 02:35:26;;;;;;;9.02;1.98;;;30.10;50.70;;;;;;5030844;28;20188;-75
2024/03/11 02:37:53;;;;;;;7.47;1.70;;;30.20;49.20;;;;;;5041379;28;20236;-75
2024/03/11 02:40:26;;;;;;;7.17;2.00;;;30.00;49.00;;;;;;5028180;28;20254;-75
2024/03/11 02:42:57;;;;;;;8.73;1.87;;;29.70;48.50;;;;;;5039961;28;20674;-75
2024/03/11 02:45:30;;;;;;;6.72;1.80;;;29.70;49.10;;;;;;5045794;28;20274;-73
2024/03/11 02:47:57;;;;;;;7.63;1.90;;;29.90;48.90;;;;;;5043240;28;20236;-75
2024/03/11 02:50:25;;;;;;;5.23;1.53;;;29.90;47.10;;;;;;5042102;28;20196;-75
2024/03/11 02:52:53;;;;;;;9.75;1.92;;;29.80;48.10;;;;;;5048248;28;20188;-74
2024/03/11 02:55:22;;;;;;;6.97;1.80;;;29.90;47.70;;;;;;5039524;28;20251;-73
2024/03/11 02:57:51;;;;;;;5.77;1.70;;;29.90;45.90;;;;;;5046415;28;20195;-76
2024/03/11 03:00:20;;;;;;;8.27;1.83;;;30.10;45.80;;;;;;5046608;28;20224;-74
2024/03/11 03:02:51;;;;;;;5.97;1.43;;;29.90;45.50;;;;;;5039961;28;20184;-74
2024/03/11 03:05:19;;;;;;;4.63;1.37;;;30.40;44.80;;;;;;5050942;28;20279;-72
2024/03/11 03:07:46;;;;;;;4.88;1.40;;;30.60;43.70;;;;;;5045307;28;20363;-75
2024/03/11 03:10:14;;;;;;;7.15;1.92;;;30.40;44.10;;;;;;5045781;28;20311;-74
2024/03/11 03:12:50;;;;;;;6.13;1.63;;;30.30;42.90;;;;;;5047747;28;20311;-75
2024/03/11 03:15:18;;;;;;;7.10;1.50;;;30.40;40.60;;;;;;5045247;28;20610;-75
2024/03/11 03:17:45;;;;;;;5.53;1.60;;;30.80;40.60;;;;;;5046430;28;20180;-72
2024/03/11 03:20:12;;;;;;;6.28;1.50;;;30.60;40.70;;;;;;5028862;28;20211;-75
2024/03/11 03:22:40;;;;;;;10.00;1.75;;;31.00;41.00;;;;;;5045690;28;20279;-72
2024/03/11 03:25:09;;;;;;;6.03;1.60;;;31.00;41.90;;;;;;5046999;28;20188;-76
2024/03/11 03:27:36;;;;;;;12.05;1.80;;;30.90;43.50;;;;;;5042775;28;20197;-74
2024/03/11 03:30:03;;;;;;;7.18;1.88;;;30.60;45.40;;;;;;5045278;28;20627;-74
2024/03/11 03:32:33;;;;;;;9.45;1.83;;;30.50;46.30;;;;;;5045330;28;20196;-73
2024/03/11 03:35:03;;;;;;;8.65;1.88;;;30.20;47.10;;;;;;5043351;28;20187;-74
2024/03/11 03:37:30;;;;;;;8.30;1.67;;;30.20;47.60;;;;;;5044796;28;20207;-73
2024/03/11 03:39:58;;;;;;;8.88;2.00;;;29.70;48.20;;;;;;5045274;28;20212;-77
2024/03/11 03:42:27;;;;;;;7.37;1.57;;;29.50;49.90;;;;;;5027609;28;20194;-74
2024/03/11 03:44:55;;;;;;;6.77;1.77;;;29.50;49.30;;;;;;5044815;28;20183;-74
2024/03/11 03:47:31;;;;;;;7.90;2.00;;;29.20;50.50;;;;;;5026198;28;20188;-75
2024/03/11 03:49:58;;;;;;;7.77;2.00;;;29.00;51.30;;;;;;5043882;28;20188;-74
2024/03/11 03:52:25;;;;;;;8.83;2.07;;;29.00;51.20;;;;;;5045913;28;20226;-73
2024/03/11 03:55:02;;;;;;;7.53;2.00;;;29.00;51.20;;;;;;5049301;28;20187;-74
2024/03/11 03:57:29;;;;;;;13.23;2.20;;;28.80;52.40;;;;;;5047175;28;20229;-72
2024/03/11 03:59:57;;;;;;;8.63;1.87;;;29.20;51.90;;;;;;5048537;28;20208;-74
2024/03/11 04:02:24;;;;;;;7.60;1.70;;;29.10;51.00;;;;;;5030609;28;20247;-72
2024/03/11 04:04:51;;;;;;;15.90;2.20;;;28.80;52.30;;;;;;5043292;28;20654;-73
2024/03/11 04:07:22;;;;;;;8.77;1.93;;;28.60;52.60;;;;;;5045759;28;20185;-72
2024/03/11 04:09:49;;;;;;;11.63;2.40;;;28.60;52.80;;;;;;5047560;28;20272;-71
2024/03/11 04:12:17;;;;;;;10.20;2.30;;;28.40;52.90;;;;;;5044793;28;20190;-73
2024/03/11 04:14:45;;;;;;;11.77;2.17;;;28.40;53.80;;;;;;5045491;28;20630;-71
2024/03/11 04:17:12;;;;;;;8.67;1.77;;;28.50;53.60;;;;;;5044249;28;20184;-73
2024/03/11 04:19:40;;;;;;;15.03;2.47;;;28.10;53.90;;;;;;5042818;28;20211;-71
2024/03/11 04:22:07;;;;;;;12.70;2.27;;;27.90;54.70;;;;;;5044964;28;20215;-71
2024/03/11 04:24:38;;;;;;;10.53;2.27;;;28.30;54.60;;;;;;5029887;28;20187;-72
2024/03/11 04:27:05;;;;;;;9.40;1.67;;;28.50;52.80;;;;;;5045919;28;20180;-71
2024/03/11 04:29:33;;;;;;;8.00;1.77;;;28.90;52.90;;;;;;5044171;28;20642;-74
2024/03/11 04:32:00;;;;;;;11.00;2.00;;;29.50;51.30;;;;;;5040643;28;20191;-76
2024/03/11 04:34:27;;;;;;;11.77;2.40;;;29.90;50.90;;;;;;5025971;28;21178;-70
2024/03/11 04:36:55;;;;;;;8.30;1.70;;;30.00;50.10;;;;;;5045217;28;20646;-70
2024/03/11 04:39:22;;;;;;;8.75;1.42;;;29.50;50.40;;;;;;5048383;28;20188;-73
2024/03/11 04:41:51;;;;;;;7.50;2.03;;;29.30;50.90;;;;;;5046427;28;20183;-72
2024/03/11 04:44:19;;;;;;;6.38;1.80;;;29.60;51.20;;;;;;5044694;28;20194;-74
2024/03/11 04:46:46;;;;;;;7.43;1.48;;;30.40;49.40;;;;;;5044231;28;20275;-75
2024/03/11 04:49:14;;;;;;;10.43;1.80;;;30.80;47.40;;;;;;5047756;28;20560;-74
2024/03/11 04:51:46;;;;;;;6.18;1.90;;;30.50;47.40;;;;;;5030732;28;20551;-72
2024/03/11 04:54:16;;;;;;;7.05;1.70;;;30.60;45.90;;;;;;5044472;28;20192;-73
2024/03/11 04:56:43;;;;;;;8.15;2.10;;;30.20;46.50;;;;;;5027491;28;20307;-75
2024/03/11 04:59:12;;;;;;;8.60;2.08;;;30.60;45.70;;;;;;5046028;28;20246;-73
2024/03/11 05:01:39;;;;;;;5.15;1.50;;;30.90;44.50;;;;;;5045096;28;20188;-72
2024/03/11 05:04:07;;;;;;;9.52;1.60;;;31.00;43.90;;;;;;5046110;28;20184;-70
2024/03/11 05:06:38;;;;;;;6.45;1.67;;;31.00;44.20;;;;;;5050258;28;20333;-74
2024/03/11 05:09:05;;;;;;;7.53;2.17;;;31.10;43.70;;;;;;5052007;28;20187;-73
2024/03/11 05:11:35;;;;;;;8.98;2.10;;;31.10;43.80;;;;;;5049069;28;20188;-75
2024/03/11 05:14:03;;;;;;;7.38;1.77;;;31.60;43.50;;;;;;5044897;28;20238;-74
2024/03/11 05:16:30;;;;;;;5.38;1.63;;;31.80;42.80;;;;;;5049289;28;20188;-73
2024/03/11 05:18:58;;;;;;;9.40;2.15;;;31.60;43.20;;;;;;5045039;28;20604;-71
2024/03/11 05:21:28;;;;;;;9.93;1.90;;;32.00;42.30;;;;;;5044185;28;20223;-72
2024/03/11 05:23:56;;;;;;;6.78;1.77;;;32.00;42.10;;;;;;5050064;28;20535;-71
2024/03/11 05:26:24;;;;;;;5.60;1.40;;;31.50;42.70;;;;;;5047761;28;20232;-76
2024/03/11 05:28:52;;;;;;;7.68;1.98;;;31.70;43.30;;;;;;5046753;28;20182;-74
2024/03/11 05:31:19;;;;;;;8.68;1.80;;;31.70;43.20;;;;;;5048000;28;20741;-72
2024/03/11 05:33:46;;;;;;;6.88;1.95;;;31.40;43.10;;;;;;5049161;28;20234;-72
2024/03/11 05:36:14;;;;;;;6.70;1.67;;;31.50;43.30;;;;;;5045056;28;20242;-72
2024/03/11 05:38:41;;;;;;;10.35;2.28;;;30.70;45.10;;;;;;5046959;28;20313;-70
2024/03/11 05:41:09;;;;;;;6.70;1.60;;;30.60;45.90;;;;;;5045999;28;20266;-74
2024/03/11 05:43:39;;;;;;;9.02;2.10;;;30.50;47.50;;;;;;5047346;28;20696;-72
2024/03/11 05:46:10;;;;;;;7.00;2.05;;;30.50;47.20;;;;;;5046522;28;20180;-73
2024/03/11 05:48:39;;;;;;;7.22;1.73;;;30.40;46.80;;;;;;5046578;28;20219;-73
2024/03/11 05:51:07;;;;;;;9.35;1.90;;;30.90;46.90;;;;;;5043010;28;20275;-73
2024/03/11 05:53:37;;;;;;;10.35;2.13;;;31.30;46.50;;;;;;5046462;28;20691;-70
2024/03/11 05:56:08;;;;;;;6.22;1.95;;;30.50;47.90;;;;;;5048592;28;20287;-70
2024/03/11 05:58:35;;;;;;;6.60;2.00;;;30.10;48.50;;;;;;5029513;28;20552;-74
2024/03/11 06:01:02;;;;;;;7.75;1.73;;;29.70;47.90;;;;;;5046057;28;20582;-71
2024/03/11 06:03:30;;;;;;;10.17;2.50;;;29.20;48.50;;;;;;5047915;28;20237;-71
2024/03/11 06:05:58;;;;;;;9.13;1.88;;;29.10;48.20;;;;;;5047952;28;20195;-72
2024/03/11 06:08:27;;;;;;;9.10;2.00;;;29.30;47.80;;;;;;5045514;28;20638;-72
2024/03/11 06:10:55;;;;;;;7.87;2.00;;;29.50;47.30;;;;;;5025590;28;20192;-75
2024/03/11 06:13:25;;;;;;;10.45;2.03;;;29.80;46.90;;;;;;5048706;28;20198;-73
2024/03/11 06:15:53;;;;;;;12.55;2.42;;;29.80;47.30;;;;;;5046712;28;20176;-73
2024/03/11 06:18:21;;;;;;;8.32;2.20;;;30.60;46.80;;;;;;5048403;28;20222;-73
2024/03/11 06:20:48;;;;;;;11.43;2.30;;;30.50;47.60;;;;;;5030478;28;20344;-74
2024/03/11 06:23:18;;;;;;;8.65;1.98;;;30.40;48.30;;;;;;5046318;28;20176;-73
2024/03/11 06:25:46;;;;;;;5.70;1.65;;;30.20;48.80;;;;;;5046572;28;20200;-76
2024/03/11 06:28:13;;;;;;;9.18;1.80;;;30.90;48.70;;;;;;5046757;28;20180;-76
2024/03/11 06:30:46;;;;;;;5.72;1.65;;;30.90;47.70;;;;;;5042037;28;20184;-77
2024/03/11 06:33:14;;;;;;;7.43;1.98;;;31.00;47.60;;;;;;5045388;28;20232;-75
2024/03/11 06:35:41;;;;;;;7.93;2.08;;;31.00;47.90;;;;;;5048722;28;20180;-73
2024/03/11 06:38:10;;;;;;;11.73;2.13;;;30.90;48.20;;;;;;5043401;28;20196;-74
2024/03/11 06:40:37;;;;;;;10.43;2.22;;;30.40;50.20;;;;;;5047724;28;20226;-72
2024/03/11 06:43:06;;;;;;;8.63;2.00;;;30.30;50.90;;;;;;5048240;28;20176;-76
2024/03/11 06:45:33;;;;;;;10.20;1.77;;;30.30;51.40;;;;;;5044261;28;20181;-75
2024/03/11 06:48:00;;;;;;;9.90;2.20;;;29.20;53.20;;;;;;5044866;28;20188;-76
2024/03/11 06:50:28;;;;;;;12.32;2.10;;;28.40;55.90;;;;;;5047111;28;20191;-74
2024/03/11 06:52:55;;;;;;;8.90;2.10;;;28.30;56.00;;;;;;5045159;28;20176;-75
2024/03/11 06:55:22;;;;;;;12.73;2.53;;;28.00;57.30;;;;;;5043797;28;20194;-72
2024/03/11 06:57:50;;;;;;;12.23;2.00;;;27.80;57.90;;;;;;5046158;28;20265;-75
2024/03/11 07:00:21;;;;;;;9.53;2.20;;;27.30;59.80;;;;;;5044176;28;20220;-72
2024/03/11 07:02:49;;;;;;;11.57;2.50;;;27.70;59.00;;;;;;5045406;28;20183;-76
2024/03/11 07:05:18;;;;;;;15.57;2.63;;;27.40;59.60;;;;;;5042633;28;20256;-77
2024/03/11 07:07:46;;;;;;;14.90;2.27;;;27.40;60.30;;;;;;5047743;28;20210;-75
2024/03/11 07:10:18;;;;;;;14.53;2.73;;;27.60;59.90;;;;;;5046656;28;20195;-77
2024/03/11 07:12:45;;;;;;;11.23;2.07;;;27.90;59.50;;;;;;5048412;28;20172;-75
2024/03/11 07:15:13;;;;;;;15.83;2.60;;;27.90;58.70;;;;;;5045193;28;20196;-75
2024/03/11 07:17:46;;;;;;;15.40;2.53;;;27.90;59.00;;;;;;5032291;28;20184;-76
2024/03/11 07:20:14;;;;;;;14.73;2.60;;;28.00;59.40;;;;;;5047200;28;20224;-73
2024/03/11 07:22:42;;;;;;;17.17;2.70;;;28.00;59.30;;;;;;5049474;28;20180;-73
2024/03/11 07:25:17;;;;;;;12.80;2.73;;;28.30;58.50;;;;;;5046046;28;20195;-74
2024/03/11 07:27:48;;;;;;;12.00;2.83;;;27.60;60.40;;;;;;5048425;28;20197;-74
2024/03/11 07:30:22;;;;;;;17.63;2.57;;;27.40;61.20;;;;;;5046415;28;20622;-72
2024/03/11 07:33:14;;;;;;;11.27;2.43;;;27.10;62.20;;;;;;5050120;28;20224;-77
2024/03/11 07:35:42;;;;;;;15.83;2.50;;;26.90;62.90;;;;;;5032788;28;20176;-76
2024/03/11 07:38:10;;;;;;;12.40;2.50;;;26.80;63.30;;;;;;5029255;28;20649;-72
2024/03/11 07:40:38;;;;;;;11.27;2.37;;;26.50;63.90;;;;;;5044639;28;20344;-70
2024/03/11 07:43:07;;;;;;;8.77;2.50;;;26.30;64.60;;;;;;5041824;28;20279;-73
2024/03/11 07:45:54;;;;;;;14.20;2.73;;;26.10;65.60;;;;;;5047240;28;20666;-74
2024/03/11 07:48:22;;;;;;;10.87;2.27;;;26.00;66.40;;;;;;5026695;28;20271;-76
2024/03/11 07:50:52;;;;;;;13.00;2.63;;;26.10;66.50;;;;;;5043417;28;20180;-74
2024/03/11 07:53:20;;;;;;;11.00;2.80;;;26.10;66.40;;;;;;5046803;28;20649;-75
2024/03/11 07:55:50;;;;;;;18.53;3.00;;;26.00;67.30;;;;;;5047912;28;20188;-76
2024/03/11 07:58:18;;;;;;;11.73;2.30;;;25.90;67.70;;;;;;5046554;28;20563;-74
2024/03/11 08:00:46;;;;;;;10.37;2.50;;;25.80;68.40;;;;;;5049160;28;20211;-75
2024/03/11 08:03:14;;;;;;;10.60;2.60;;;25.50;68.90;;;;;;5048803;28;20464;-73
2024/03/11 08:05:43;;;;;;;11.43;2.47;;;25.50;69.30;;;;;;5048892;28;20548;-73
2024/03/11 08:08:11;;;;;;;17.50;3.37;;;25.40;69.60;;;;;;5047314;28;20681;-74
2024/03/11 08:10:40;;;;;;;11.03;2.70;;;25.40;69.80;;;;;;5047941;28;20183;-75
2024/03/11 08:13:08;;;;;;;20.90;3.20;;;25.40;70.10;;;;;;5044645;28;20180;-75
2024/03/11 08:15:36;;;;;;;16.70;3.20;;;25.40;70.30;;;;;;5044962;28;20577;-74
2024/03/11 08:18:05;;;;;;;13.30;2.97;;;25.30;70.20;;;;;;5046201;28;20191;-73
2024/03/11 08:20:34;;;;;;;17.00;3.20;;;25.30;70.30;;;;;;5047974;28;20218;-75
2024/03/11 08:23:02;;;;;;;13.23;2.83;;;25.20;70.60;;;;;;5046133;28;20178;-73
2024/03/11 08:25:31;;;;;;;9.77;3.00;;;25.10;70.60;;;;;;5046651;28;20603;-75
2024/03/11 08:27:59;;;;;;;12.30;2.23;;;25.00;70.70;;;;;;5043737;28;20184;-73
2024/03/11 08:30:30;;;;;;;12.90;2.63;;;24.90;70.90;;;;;;5047637;28;20222;-70
2024/03/11 08:32:59;;;;;;;11.27;2.57;;;24.80;70.90;;;;;;5046858;28;20764;-73
2024/03/11 08:35:27;;;;;;;14.87;3.07;;;24.80;70.80;;;;;;5048699;28;20230;-72
2024/03/11 08:37:55;;;;;;;16.43;3.27;;;24.80;70.10;;;;;;5045087;28;20505;-74
2024/03/11 08:40:23;;;;;;;15.73;3.00;;;24.80;70.00;;;;;;5045092;28;20207;-74
2024/03/11 08:42:50;;;;;;;14.10;2.90;;;24.70;69.90;;;;;;5051049;28;20203;-73
2024/03/11 08:45:23;;;;;;;12.77;3.87;;;24.70;70.30;;;;;;5051964;28;20642;-75
2024/03/11 08:47:54;;;;;;;16.20;3.40;;;24.70;70.60;;;;;;5050420;28;20176;-75
2024/03/11 08:50:24;;;;;;;18.93;3.20;;;24.70;70.80;;;;;;5048316;28;20180;-74
2024/03/11 08:52:52;;;;;;;16.53;2.40;;;24.70;71.00;;;;;;5052534;28;20180;-73
2024/03/11 08:55:19;;;;;;;15.73;3.07;;;24.70;70.80;;;;;;5030629;28;20250;-74
2024/03/11 08:57:53;;;;;;;14.37;2.67;;;24.60;70.80;;;;;;5050762;28;20194;-74
2024/03/11 09:00:27;;;;;;;15.17;2.57;;;24.60;71.00;;;;;;5051134;28;20677;-76
2024/03/11 09:02:57;;;;;;;14.93;2.90;;;24.60;71.20;;;;;;5052869;28;20267;-73
2024/03/11 09:05:25;;;;;;;17.37;3.10;;;24.60;71.10;;;;;;5051511;28;20237;-75
2024/03/11 09:07:52;;;;;;;19.10;2.90;;;24.60;71.40;;;;;;5050876;28;20179;-75
2024/03/11 09:10:22;;;;;;;14.80;2.80;;;24.60;71.50;;;;;;5045245;28;20175;-75
2024/03/11 09:12:51;;;;;;;15.97;3.03;;;24.60;71.80;;;;;;5049392;28;20183;-75
2024/03/11 09:15:23;;;;;;;18.47;3.47;;;24.50;72.10;;;;;;5047732;28;20179;-77
2024/03/11 09:17:52;;;;;;;13.07;3.10;;;24.50;72.20;;;;;;5049355;28;20208;-73
2024/03/11 09:20:21;;;;;;;18.80;3.93;;;24.50;72.30;;;;;;5048593;28;20251;-74
2024/03/11 09:22:56;;;;;;;16.80;3.20;;;24.50;72.10;;;;;;5051609;28;20199;-76
2024/03/11 09:25:26;;;;;;;15.67;2.53;;;24.40;72.20;;;;;;5052167;28;20589;-77
2024/03/11 09:28:00;;;;;;;15.47;3.13;;;24.40;72.30;;;;;;5047697;28;20245;-75
2024/03/11 09:30:32;;;;;;;20.17;2.97;;;24.40;72.50;;;;;;5049048;28;20582;-75
2024/03/11 09:33:00;;;;;;;17.67;3.30;;;24.40;72.60;;;;;;5026486;28;20215;-73
2024/03/11 09:35:28;;;;;;;22.63;3.93;;;24.30;72.80;;;;;;5049288;28;20548;-75
2024/03/11 09:37:56;;;;;;;12.53;3.10;;;24.30;73.00;;;;;;5043915;28;20255;-76
2024/03/11 09:40:27;;;;;;;14.43;2.70;;;24.30;73.10;;;;;;5030527;28;20219;-76
2024/03/11 09:42:58;;;;;;;13.60;3.00;;;24.30;73.40;;;;;;5050369;28;20187;-76
2024/03/11 09:45:30;;;;;;;15.67;3.10;;;24.30;73.70;;;;;;5045086;28;20180;-73
2024/03/11 09:48:00;;;;;;;17.07;2.73;;;24.30;74.00;;;;;;5044635;28;20191;-77
2024/03/11 09:50:32;;;;;;;14.80;3.00;;;24.30;74.00;;;;;;5045440;28;20183;-74
2024/03/11 09:53:12;;;;;;;13.40;2.80;;;24.30;74.20;;;;;;5048349;28;20180;-75
2024/03/11 09:55:44;;;;;;;18.63;3.57;;;24.20;74.60;;;;;;5046587;28;20216;-76
2024/03/11 09:58:18;;;;;;;18.77;3.30;;;24.30;74.50;;;;;;5048358;28;20188;-76
2024/03/11 10:00:55;;;;;;;16.60;3.07;;;24.20;74.70;;;;;;5042513;28;20517;-76
2024/03/11 10:03:24;;;;;;;15.37;2.93;;;24.20;74.90;;;;;;5044831;28;20225;-75
2024/03/11 10:05:59;;;;;;;17.57;2.83;;;24.20;75.10;;;;;;5048573;28;20188;-74
2024/03/11 10:08:27;;;;;;;17.87;3.20;;;24.10;75.30;;;;;;5049863;28;20202;-76
2024/03/11 10:11:21;;;;;;;16.23;3.23;;;24.10;75.30;;;;;;5045317;28;20212;-72
2024/03/11 10:13:57;;;;;;;16.50;2.70;;;24.10;75.50;;;;;;5033366;28;20603;-76
2024/03/11 10:16:27;;;;;;;18.93;3.03;;;24.00;75.60;;;;;;5030020;28;20186;-75
2024/03/11 10:19:14;;;;;;;11.60;2.43;;;24.00;75.80;;;;;;5027878;28;20222;-74
2024/03/11 10:21:45;;;;;;;12.93;3.30;;;24.00;75.90;;;;;;5046414;28;20699;-74
2024/03/11 10:24:16;;;;;;;16.83;3.17;;;24.00;76.10;;;;;;5026455;28;20176;-71
2024/03/11 10:26:48;;;;;;;17.13;3.23;;;23.90;75.70;;;;;;5044115;28;20188;-74
2024/03/11 10:29:33;;;;;;;13.73;2.73;;;23.90;75.80;;;;;;5031843;28;20185;-75
2024/03/11 10:32:03;;;;;;;15.17;3.33;;;23.90;75.90;;;;;;5047233;28;20184;-76
2024/03/11 10:34:30;;;;;;;18.67;3.47;;;23.90;76.10;;;;;;5034340;28;20231;-75
2024/03/11 10:37:06;;;;;;;16.23;3.20;;;23.90;76.20;;;;;;5044477;28;20566;-76
2024/03/11 10:39:40;;;;;;;16.07;3.40;;;23.80;76.10;;;;;;5049480;28;20270;-75
2024/03/11 10:42:15;;;;;;;16.97;3.17;;;23.80;76.10;;;;;;5042772;28;20647;-75
2024/03/11 10:44:45;;;;;;;20.03;3.23;;;23.80;76.10;;;;;;5045737;28;20183;-76
2024/03/11 10:47:18;;;;;;;11.97;2.83;;;23.80;76.00;;;;;;5039030;28;20275;-73
2024/03/11 10:49:51;;;;;;;16.57;2.73;;;23.80;76.00;;;;;;5044672;28;20192;-75
2024/03/11 10:52:25;;;;;;;20.53;3.23;;;23.80;76.10;;;;;;5043996;28;20317;-75
2024/03/11 10:54:57;;;;;;;15.50;2.83;;;23.70;75.90;;;;;;5048235;28;20218;-74
2024/03/11 10:57:35;;;;;;;19.57;2.70;;;23.70;75.80;;;;;;5046279;28;20180;-74
2024/03/11 11:02:53;;;;;;;18.03;3.30;;;23.80;75.10;;;;;;5047953;28;20581;-73
2024/03/11 11:05:25;;;;;;;22.20;2.90;;;23.70;74.80;;;;;;5046952;28;20192;-74
2024/03/11 11:07:53;;;;;;;14.93;2.80;;;23.80;74.90;;;;;;5044969;28;20290;-75
2024/03/11 11:10:22;;;;;;;14.47;3.03;;;23.70;74.50;;;;;;5045610;28;20180;-76
2024/03/11 11:12:53;;;;;;;17.97;3.07;;;23.70;74.60;;;;;;5042415;28;20634;-77
2024/03/11 11:15:23;;;;;;;16.27;3.20;;;23.70;74.90;;;;;;5025880;28;20706;-75
2024/03/11 11:17:54;;;;;;;12.83;2.53;;;23.70;75.00;;;;;;5045375;28;20550;-73
2024/03/11 11:20:32;;;;;;;16.90;2.87;;;23.70;75.00;;;;;;5034304;28;20236;-77
2024/03/11 11:23:02;;;;;;;13.63;3.13;;;23.70;75.00;;;;;;5047854;28;20182;-74
2024/03/11 11:25:41;;;;;;;17.63;2.80;;;23.70;75.10;;;;;;5048387;28;20180;-75
2024/03/11 11:28:24;;;;;;;15.73;2.60;;;23.60;75.30;;;;;;5024352;28;20188;-75
2024/03/11 11:31:14;;;;;;;11.00;2.60;;;23.60;75.20;;;;;;5039403;28;20176;-73
2024/03/11 11:33:56;;;;;;;16.90;3.07;;;23.70;75.30;;;;;;5044091;28;20231;-75
2024/03/11 11:36:33;;;;;;;14.10;2.57;;;23.60;75.50;;;;;;5049260;28;20721;-76
2024/03/11 11:39:27;;;;;;;8.47;2.93;;;23.60;75.70;;;;;;5043401;28;20264;-76
2024/03/11 11:41:57;;;;;;;17.43;2.73;;;23.50;75.90;;;;;;5045364;28;20195;-76
2024/03/11 11:44:27;;;;;;;16.33;2.90;;;23.50;75.90;;;;;;5047448;28;20180;-78
2024/03/11 11:47:15;;;;;;;17.07;3.50;;;23.50;75.90;;;;;;5044602;28;20685;-77
2024/03/11 11:49:43;;;;;;;10.47;3.17;;;23.50;76.00;;;;;;5043307;28;20180;-77
2024/03/11 11:52:14;;;;;;;15.20;3.37;;;23.50;76.20;;;;;;5041356;28;20183;-77
2024/03/11 11:54:43;;;;;;;16.20;3.73;;;23.40;76.20;;;;;;5048909;28;20190;-76
2024/03/11 11:57:17;;;;;;;14.10;2.73;;;23.40;76.30;;;;;;5040410;28;20192;-76
2024/03/11 12:00:13;;;;;;;18.30;2.80;;;23.40;76.40;;;;;;5039998;28;20311;-74
2024/03/11 12:02:44;;;;;;;13.07;2.90;;;23.40;76.50;;;;;;5033947;28;20525;-75
2024/03/11 12:05:15;;;;;;;16.57;3.20;;;23.30;76.60;;;;;;5041389;28;20184;-75
2024/03/11 12:07:47;;;;;;;20.40;3.33;;;23.30;76.80;;;;;;5040136;28;20281;-75
2024/03/11 12:10:19;;;;;;;18.07;2.73;;;23.40;76.80;;;;;;5045238;28;20675;-76
2024/03/11 12:12:49;;;;;;;20.17;2.90;;;23.30;76.80;;;;;;5045397;28;20203;-75
2024/03/11 12:15:22;;;;;;;13.27;2.63;;;23.30;76.90;;;;;;5023865;28;20299;-75
2024/03/11 12:18:02;;;;;;;13.73;2.93;;;23.30;77.10;;;;;;5040129;28;20179;-75
2024/03/11 12:23:04;;;;;;;16.60;3.50;;;23.30;77.40;;;;;;5039815;28;20643;-76
2024/03/11 12:25:36;;;;;;;13.87;2.87;;;23.30;77.50;;;;;;5027492;28;20650;-77
2024/03/11 12:28:15;;;;;;;13.97;3.37;;;23.30;77.70;;;;;;5042179;28;20657;-75
2024/03/11 12:30:51;;;;;;;16.13;3.13;;;23.30;77.80;;;;;;5047542;28;20545;-74
2024/03/11 12:33:21;;;;;;;17.30;3.23;;;23.20;77.90;;;;;;5043685;28;20579;-73
2024/03/11 12:35:52;;;;;;;13.77;3.27;;;23.20;78.00;;;;;;5043146;28;20206;-75
2024/03/11 12:38:19;;;;;;;12.70;3.17;;;23.20;78.00;;;;;;5035815;28;20241;-74
2024/03/11 12:40:47;;;;;;;16.07;3.10;;;23.20;78.00;;;;;;5045526;28;20678;-74
2024/03/11 12:43:23;;;;;;;12.17;2.30;;;23.20;78.10;;;;;;5039796;28;20176;-74
2024/03/11 12:45:57;;;;;;;13.00;3.50;;;23.20;78.10;;;;;;5039526;28;20175;-74
2024/03/11 12:48:28;;;;;;;20.70;3.23;;;23.10;78.30;;;;;;5028055;28;20272;-76
2024/03/11 12:50:58;;;;;;;17.90;3.50;;;23.10;78.40;;;;;;5041730;28;20191;-75
2024/03/11 12:53:29;;;;;;;16.67;3.33;;;23.00;78.40;;;;;;5039216;28;20673;-75
2024/03/11 12:56:05;;;;;;;18.23;3.97;;;23.00;78.60;;;;;;5038755;28;20538;-75
2024/03/11 12:58:36;;;;;;;13.10;3.23;;;23.00;78.70;;;;;;5045198;28;20186;-75
2024/03/11 13:01:09;;;;;;;23.83;3.80;;;22.90;78.90;;;;;;5042459;28;20369;-74